sensor_id;sensor_type;location;lat;lon;timestamp;pressure;altitude;pressure_sealevel;temperature;humidity
10852;BME280;5479;52.046;6.314;2023-03-26T00:00:51;100593.06;;;8.26;100.00
10852;BME280;5479;52.046;6.314;2023-03-26T00:03:21;100596.94;;;8.19;100.00
10852;BME280;5479;52.046;6.314;2023-03-26T00:06:01;100588.25;;;8.17;100.00
10852;BME280;5479;52.046;6.314;2023-03-26T00:08:31;100585.94;;;8.11;100.00
10852;BME280;5479;52.046;6.314;2023-03-26T00:10:59;100598.19;;;8.12;100.00
10852;BME280;5479;52.046;6.314;2023-03-26T00:13:29;100607.63;;;8.16;100.00
10852;BME280;5479;52.046;6.314;2023-03-26T00:15:58;100599.97;;;8.12;100.00
10852;BME280;5479;52.046;6.314;2023-03-26T00:18:26;100594.59;;;8.13;100.00
10852;BME280;5479;52.046;6.314;2023-03-26T00:20:57;100608.13;;;8.07;100.00
10852;BME280;5479;52.046;6.314;2023-03-26T00:23:28;100602.72;;;8.10;100.00
10852;BME280;5479;52.046;6.314;2023-03-26T00:25:56;100607.59;;;8.18;100.00
10852;BME280;5479;52.046;6.314;2023-03-26T00:28:24;100608.75;;;8.12;100.00
10852;BME280;5479;52.046;6.314;2023-03-26T00:30:57;100611.44;;;8.11;100.00
10852;BME280;5479;52.046;6.314;2023-03-26T00:33:26;100601.75;;;8.11;100.00
10852;BME280;5479;52.046;6.314;2023-03-26T00:35:56;100601.34;;;8.19;100.00
10852;BME280;5479;52.046;6.314;2023-03-26T00:38:27;100591.75;;;8.18;100.00
10852;BME280;5479;52.046;6.314;2023-03-26T00:40:58;100593.06;;;8.26;100.00
10852;BME280;5479;52.046;6.314;2023-03-26T00:43:32;100587.72;;;8.28;100.00
10852;BME280;5479;52.046;6.314;2023-03-26T00:46:02;100588.97;;;8.21;100.00
10852;BME280;5479;52.046;6.314;2023-03-26T00:48:30;100589.50;;;8.27;100.00
10852;BME280;5479;52.046;6.314;2023-03-26T00:50:59;100585.22;;;8.25;100.00
10852;BME280;5479;52.046;6.314;2023-03-26T00:53:29;100583.91;;;8.16;100.00
10852;BME280;5479;52.046;6.314;2023-03-26T00:55:57;100579.44;;;8.18;100.00
10852;BME280;5479;52.046;6.314;2023-03-26T00:58:26;100582.22;;;8.15;100.00
10852;BME280;5479;52.046;6.314;2023-03-26T01:00:57;100576.09;;;8.15;100.00
10852;BME280;5479;52.046;6.314;2023-03-26T01:03:26;100576.59;;;8.21;100.00
10852;BME280;5479;52.046;6.314;2023-03-26T01:05:57;100576.84;;;8.17;100.00
10852;BME280;5479;52.046;6.314;2023-03-26T01:08:34;100571.66;;;8.15;100.00
10852;BME280;5479;52.046;6.314;2023-03-26T01:11:06;100567.84;;;8.21;100.00
10852;BME280;5479;52.046;6.314;2023-03-26T01:13:43;100567.00;;;8.20;100.00
10852;BME280;5479;52.046;6.314;2023-03-26T01:16:18;100567.75;;;8.22;100.00
10852;BME280;5479;52.046;6.314;2023-03-26T01:18:48;100567.69;;;8.24;100.00
10852;BME280;5479;52.046;6.314;2023-03-26T01:21:21;100564.53;;;8.17;100.00
10852;BME280;5479;52.046;6.314;2023-03-26T01:23:59;100561.78;;;8.19;100.00
10852;BME280;5479;52.046;6.314;2023-03-26T01:29:29;100551.78;;;8.25;100.00
10852;BME280;5479;52.046;6.314;2023-03-26T01:32:05;100555.44;;;8.23;100.00
10852;BME280;5479;52.046;6.314;2023-03-26T01:34:45;100551.94;;;8.22;100.00
10852;BME280;5479;52.046;6.314;2023-03-26T01:37:23;100559.09;;;8.20;100.00
10852;BME280;5479;52.046;6.314;2023-03-26T01:39:55;100546.50;;;8.25;100.00
10852;BME280;5479;52.046;6.314;2023-03-26T01:42:36;100549.25;;;8.24;100.00
10852;BME280;5479;52.046;6.314;2023-03-26T01:45:15;100534.16;;;8.26;100.00
10852;BME280;5479;52.046;6.314;2023-03-26T01:47:45;100530.66;;;8.25;100.00
10852;BME280;5479;52.046;6.314;2023-03-26T01:50:14;100532.22;;;8.29;100.00
10852;BME280;5479;52.046;6.314;2023-03-26T01:52:42;100521.69;;;8.29;100.00
10852;BME280;5479;52.046;6.314;2023-03-26T01:55:11;100524.25;;;8.31;100.00
10852;BME280;5479;52.046;6.314;2023-03-26T01:57:50;100523.94;;;8.37;100.00
10852;BME280;5479;52.046;6.314;2023-03-26T02:00:24;100523.50;;;8.44;100.00
10852;BME280;5479;52.046;6.314;2023-03-26T02:03:13;100518.81;;;8.49;100.00
10852;BME280;5479;52.046;6.314;2023-03-26T02:05:49;100513.72;;;8.46;100.00
10852;BME280;5479;52.046;6.314;2023-03-26T02:08:22;100501.81;;;8.39;100.00
10852;BME280;5479;52.046;6.314;2023-03-26T02:10:55;100498.91;;;8.44;100.00
10852;BME280;5479;52.046;6.314;2023-03-26T02:13:24;100497.72;;;8.49;100.00
10852;BME280;5479;52.046;6.314;2023-03-26T02:15:54;100482.63;;;8.52;100.00
10852;BME280;5479;52.046;6.314;2023-03-26T02:18:22;100481.00;;;8.49;100.00
10852;BME280;5479;52.046;6.314;2023-03-26T02:20:50;100481.13;;;8.47;100.00
10852;BME280;5479;52.046;6.314;2023-03-26T02:23:19;100492.59;;;8.46;100.00
10852;BME280;5479;52.046;6.314;2023-03-26T02:25:47;100477.63;;;8.47;100.00
10852;BME280;5479;52.046;6.314;2023-03-26T02:28:17;100472.25;;;8.48;100.00
10852;BME280;5479;52.046;6.314;2023-03-26T02:30:45;100482.72;;;8.50;100.00
10852;BME280;5479;52.046;6.314;2023-03-26T02:33:13;100481.88;;;8.49;100.00
10852;BME280;5479;52.046;6.314;2023-03-26T02:35:42;100476.75;;;8.46;100.00
10852;BME280;5479;52.046;6.314;2023-03-26T02:38:11;100473.03;;;8.51;100.00
10852;BME280;5479;52.046;6.314;2023-03-26T02:40:40;100469.44;;;8.52;100.00
10852;BME280;5479;52.046;6.314;2023-03-26T02:43:08;100464.91;;;8.54;100.00
10852;BME280;5479;52.046;6.314;2023-03-26T02:45:37;100457.69;;;8.57;100.00
10852;BME280;5479;52.046;6.314;2023-03-26T02:48:07;100462.09;;;8.57;100.00
10852;BME280;5479;52.046;6.314;2023-03-26T02:50:35;100454.97;;;8.59;100.00
10852;BME280;5479;52.046;6.314;2023-03-26T02:53:03;100451.72;;;8.54;100.00
10852;BME280;5479;52.046;6.314;2023-03-26T02:55:31;100452.56;;;8.54;100.00
10852;BME280;5479;52.046;6.314;2023-03-26T02:58:00;100450.53;;;8.59;100.00
10852;BME280;5479;52.046;6.314;2023-03-26T03:00:27;100448.84;;;8.58;100.00
10852;BME280;5479;52.046;6.314;2023-03-26T03:02:57;100442.53;;;8.61;100.00
10852;BME280;5479;52.046;6.314;2023-03-26T03:05:25;100444.59;;;8.56;100.00
10852;BME280;5479;52.046;6.314;2023-03-26T03:07:54;100440.06;;;8.58;100.00
10852;BME280;5479;52.046;6.314;2023-03-26T03:10:24;100441.38;;;8.51;100.00
10852;BME280;5479;52.046;6.314;2023-03-26T03:12:53;100448.06;;;8.56;100.00
10852;BME280;5479;52.046;6.314;2023-03-26T03:15:21;100443.63;;;8.57;100.00
10852;BME280;5479;52.046;6.314;2023-03-26T03:17:52;100435.13;;;8.52;100.00
10852;BME280;5479;52.046;6.314;2023-03-26T03:20:21;100441.16;;;8.54;100.00
10852;BME280;5479;52.046;6.314;2023-03-26T03:22:49;100437.94;;;8.48;100.00
10852;BME280;5479;52.046;6.314;2023-03-26T03:25:17;100429.78;;;8.53;100.00
10852;BME280;5479;52.046;6.314;2023-03-26T03:27:48;100428.75;;;8.56;100.00
10852;BME280;5479;52.046;6.314;2023-03-26T03:30:16;100425.34;;;8.54;100.00
10852;BME280;5479;52.046;6.314;2023-03-26T03:32:44;100413.09;;;8.53;100.00
10852;BME280;5479;52.046;6.314;2023-03-26T03:35:12;100413.25;;;8.49;100.00
10852;BME280;5479;52.046;6.314;2023-03-26T03:37:41;100417.78;;;8.47;100.00
10852;BME280;5479;52.046;6.314;2023-03-26T03:40:10;100413.44;;;8.46;100.00
10852;BME280;5479;52.046;6.314;2023-03-26T03:42:38;100410.53;;;8.51;100.00
10852;BME280;5479;52.046;6.314;2023-03-26T03:45:07;100408.00;;;8.49;100.00
10852;BME280;5479;52.046;6.314;2023-03-26T03:47:35;100401.78;;;8.51;100.00
10852;BME280;5479;52.046;6.314;2023-03-26T03:50:03;100403.47;;;8.52;100.00
10852;BME280;5479;52.046;6.314;2023-03-26T03:52:32;100399.47;;;8.44;100.00
10852;BME280;5479;52.046;6.314;2023-03-26T03:55:01;100403.16;;;8.42;100.00
10852;BME280;5479;52.046;6.314;2023-03-26T03:57:29;100406.09;;;8.52;100.00
10852;BME280;5479;52.046;6.314;2023-03-26T03:59:59;100399.81;;;8.54;100.00
10852;BME280;5479;52.046;6.314;2023-03-26T04:02:27;100401.97;;;8.47;100.00
10852;BME280;5479;52.046;6.314;2023-03-26T04:05:00;100415.31;;;8.44;100.00
10852;BME280;5479;52.046;6.314;2023-03-26T04:07:29;100412.69;;;8.44;100.00
10852;BME280;5479;52.046;6.314;2023-03-26T04:09:57;100417.69;;;8.49;100.00
10852;BME280;5479;52.046;6.314;2023-03-26T04:12:30;100409.88;;;8.47;100.00
10852;BME280;5479;52.046;6.314;2023-03-26T04:14:59;100401.00;;;8.48;100.00
10852;BME280;5479;52.046;6.314;2023-03-26T04:17:27;100392.75;;;8.55;100.00
10852;BME280;5479;52.046;6.314;2023-03-26T04:19:56;100388.19;;;8.42;100.00
10852;BME280;5479;52.046;6.314;2023-03-26T04:22:23;100392.66;;;8.40;100.00
10852;BME280;5479;52.046;6.314;2023-03-26T04:25:02;100376.19;;;8.37;100.00
10852;BME280;5479;52.046;6.314;2023-03-26T04:27:32;100383.81;;;8.41;100.00
10852;BME280;5479;52.046;6.314;2023-03-26T04:30:03;100370.97;;;8.35;100.00
10852;BME280;5479;52.046;6.314;2023-03-26T04:32:32;100362.31;;;8.33;100.00
10852;BME280;5479;52.046;6.314;2023-03-26T04:35:01;100370.03;;;8.36;100.00
10852;BME280;5479;52.046;6.314;2023-03-26T04:37:31;100358.75;;;8.34;100.00
10852;BME280;5479;52.046;6.314;2023-03-26T04:40:02;100352.59;;;8.18;100.00
10852;BME280;5479;52.046;6.314;2023-03-26T04:42:37;100346.03;;;8.25;100.00
10852;BME280;5479;52.046;6.314;2023-03-26T04:45:07;100346.19;;;8.22;100.00
10852;BME280;5479;52.046;6.314;2023-03-26T04:47:37;100341.53;;;8.12;100.00
10852;BME280;5479;52.046;6.314;2023-03-26T04:50:09;100345.09;;;8.11;100.00
10852;BME280;5479;52.046;6.314;2023-03-26T04:52:37;100351.38;;;8.08;100.00
10852;BME280;5479;52.046;6.314;2023-03-26T04:55:13;100343.84;;;8.18;100.00
10852;BME280;5479;52.046;6.314;2023-03-26T04:57:48;100341.84;;;8.21;100.00
10852;BME280;5479;52.046;6.314;2023-03-26T05:00:19;100340.75;;;8.25;100.00
10852;BME280;5479;52.046;6.314;2023-03-26T05:02:48;100336.56;;;8.21;100.00
10852;BME280;5479;52.046;6.314;2023-03-26T05:05:23;100327.50;;;8.11;100.00
10852;BME280;5479;52.046;6.314;2023-03-26T05:07:51;100337.69;;;8.17;100.00
10852;BME280;5479;52.046;6.314;2023-03-26T05:10:20;100324.41;;;8.19;100.00
10852;BME280;5479;52.046;6.314;2023-03-26T05:12:49;100330.66;;;8.18;100.00
10852;BME280;5479;52.046;6.314;2023-03-26T05:15:17;100327.91;;;8.19;100.00
10852;BME280;5479;52.046;6.314;2023-03-26T05:17:45;100328.66;;;8.21;100.00
10852;BME280;5479;52.046;6.314;2023-03-26T05:20:19;100330.47;;;8.36;100.00
10852;BME280;5479;52.046;6.314;2023-03-26T05:22:49;100319.06;;;8.36;100.00
10852;BME280;5479;52.046;6.314;2023-03-26T05:25:18;100321.03;;;8.32;100.00
10852;BME280;5479;52.046;6.314;2023-03-26T05:27:46;100313.69;;;8.37;100.00
10852;BME280;5479;52.046;6.314;2023-03-26T05:30:17;100315.28;;;8.40;100.00
10852;BME280;5479;52.046;6.314;2023-03-26T05:32:47;100312.81;;;8.53;100.00
10852;BME280;5479;52.046;6.314;2023-03-26T05:35:16;100311.28;;;8.48;100.00
10852;BME280;5479;52.046;6.314;2023-03-26T05:37:44;100308.25;;;8.40;100.00
10852;BME280;5479;52.046;6.314;2023-03-26T05:40:14;100308.06;;;8.43;100.00
10852;BME280;5479;52.046;6.314;2023-03-26T05:42:43;100303.13;;;8.37;100.00
10852;BME280;5479;52.046;6.314;2023-03-26T05:45:12;100294.47;;;8.35;100.00
10852;BME280;5479;52.046;6.314;2023-03-26T05:47:43;100300.72;;;8.48;100.00
10852;BME280;5479;52.046;6.314;2023-03-26T05:50:12;100293.78;;;8.47;100.00
10852;BME280;5479;52.046;6.314;2023-03-26T05:52:40;100289.41;;;8.46;100.00
10852;BME280;5479;52.046;6.314;2023-03-26T05:55:08;100285.34;;;8.41;100.00
10852;BME280;5479;52.046;6.314;2023-03-26T05:57:36;100283.91;;;8.35;100.00
10852;BME280;5479;52.046;6.314;2023-03-26T06:00:06;100280.53;;;8.33;100.00
10852;BME280;5479;52.046;6.314;2023-03-26T06:02:36;100277.38;;;8.27;100.00
10852;BME280;5479;52.046;6.314;2023-03-26T06:05:06;100271.34;;;8.09;100.00
10852;BME280;5479;52.046;6.314;2023-03-26T06:07:35;100271.53;;;8.06;100.00
10852;BME280;5479;52.046;6.314;2023-03-26T06:10:03;100260.41;;;8.01;100.00
10852;BME280;5479;52.046;6.314;2023-03-26T06:12:33;100256.38;;;8.10;100.00
10852;BME280;5479;52.046;6.314;2023-03-26T06:15:00;100246.88;;;8.07;100.00
10852;BME280;5479;52.046;6.314;2023-03-26T06:17:29;100247.16;;;8.32;100.00
10852;BME280;5479;52.046;6.314;2023-03-26T06:19:57;100235.81;;;8.60;100.00
10852;BME280;5479;52.046;6.314;2023-03-26T06:22:27;100238.75;;;8.56;100.00
10852;BME280;5479;52.046;6.314;2023-03-26T06:24:54;100232.31;;;8.45;100.00
10852;BME280;5479;52.046;6.314;2023-03-26T06:27:22;100226.84;;;8.48;100.00
10852;BME280;5479;52.046;6.314;2023-03-26T06:29:50;100232.19;;;8.33;100.00
10852;BME280;5479;52.046;6.314;2023-03-26T06:32:20;100216.28;;;8.48;100.00
10852;BME280;5479;52.046;6.314;2023-03-26T06:34:48;100213.00;;;8.45;100.00
10852;BME280;5479;52.046;6.314;2023-03-26T06:37:16;100208.31;;;8.50;100.00
10852;BME280;5479;52.046;6.314;2023-03-26T06:39:45;100212.72;;;8.49;100.00
10852;BME280;5479;52.046;6.314;2023-03-26T06:42:13;100213.69;;;8.63;100.00
10852;BME280;5479;52.046;6.314;2023-03-26T06:44:41;100219.44;;;8.69;100.00
10852;BME280;5479;52.046;6.314;2023-03-26T06:47:10;100222.25;;;8.80;100.00
10852;BME280;5479;52.046;6.314;2023-03-26T06:49:37;100216.59;;;8.72;100.00
10852;BME280;5479;52.046;6.314;2023-03-26T06:52:07;100221.81;;;8.74;100.00
10852;BME280;5479;52.046;6.314;2023-03-26T06:54:35;100214.03;;;8.57;100.00
10852;BME280;5479;52.046;6.314;2023-03-26T06:57:04;100209.06;;;8.66;100.00
10852;BME280;5479;52.046;6.314;2023-03-26T06:59:32;100210.09;;;8.78;100.00
10852;BME280;5479;52.046;6.314;2023-03-26T07:02:00;100208.91;;;8.69;100.00
10852;BME280;5479;52.046;6.314;2023-03-26T07:04:28;100205.19;;;8.86;100.00
10852;BME280;5479;52.046;6.314;2023-03-26T07:06:56;100212.91;;;8.75;100.00
10852;BME280;5479;52.046;6.314;2023-03-26T07:09:24;100212.16;;;8.73;100.00
10852;BME280;5479;52.046;6.314;2023-03-26T07:11:55;100214.59;;;8.62;100.00
10852;BME280;5479;52.046;6.314;2023-03-26T07:14:25;100211.00;;;8.48;100.00
10852;BME280;5479;52.046;6.314;2023-03-26T07:16:56;100212.50;;;8.38;100.00
10852;BME280;5479;52.046;6.314;2023-03-26T07:19:24;100205.63;;;8.36;100.00
10852;BME280;5479;52.046;6.314;2023-03-26T07:21:53;100204.59;;;8.38;100.00
10852;BME280;5479;52.046;6.314;2023-03-26T07:24:22;100200.94;;;8.55;100.00
10852;BME280;5479;52.046;6.314;2023-03-26T07:26:54;100204.25;;;8.59;100.00
10852;BME280;5479;52.046;6.314;2023-03-26T07:29:33;100213.47;;;8.52;100.00
10852;BME280;5479;52.046;6.314;2023-03-26T07:32:10;100214.81;;;8.73;100.00
10852;BME280;5479;52.046;6.314;2023-03-26T07:34:49;100204.47;;;8.98;100.00
10852;BME280;5479;52.046;6.314;2023-03-26T07:37:32;100205.13;;;9.01;100.00
10852;BME280;5479;52.046;6.314;2023-03-26T07:40:10;100199.56;;;8.92;100.00
10852;BME280;5479;52.046;6.314;2023-03-26T07:42:53;100198.81;;;9.04;100.00
10852;BME280;5479;52.046;6.314;2023-03-26T07:45:30;100197.28;;;9.00;100.00
10852;BME280;5479;52.046;6.314;2023-03-26T07:48:00;100188.63;;;8.84;100.00
10852;BME280;5479;52.046;6.314;2023-03-26T07:50:29;100195.97;;;8.93;100.00
10852;BME280;5479;52.046;6.314;2023-03-26T07:52:57;100189.00;;;8.92;100.00
10852;BME280;5479;52.046;6.314;2023-03-26T07:55:25;100185.22;;;8.96;100.00
10852;BME280;5479;52.046;6.314;2023-03-26T07:58:01;100192.09;;;8.84;100.00
10852;BME280;5479;52.046;6.314;2023-03-26T08:00:36;100175.22;;;8.87;100.00
10852;BME280;5479;52.046;6.314;2023-03-26T08:03:18;100179.72;;;8.99;100.00
10852;BME280;5479;52.046;6.314;2023-03-26T08:05:56;100178.44;;;8.92;100.00
10852;BME280;5479;52.046;6.314;2023-03-26T08:08:34;100180.13;;;8.93;100.00
10852;BME280;5479;52.046;6.314;2023-03-26T08:11:14;100177.75;;;8.88;100.00
10852;BME280;5479;52.046;6.314;2023-03-26T08:13:55;100176.16;;;8.86;100.00
10852;BME280;5479;52.046;6.314;2023-03-26T08:16:32;100178.25;;;8.95;100.00
10852;BME280;5479;52.046;6.314;2023-03-26T08:19:07;100180.31;;;8.90;100.00
10852;BME280;5479;52.046;6.314;2023-03-26T08:21:46;100180.94;;;9.07;100.00
10852;BME280;5479;52.046;6.314;2023-03-26T08:24:19;100177.81;;;9.29;100.00
10852;BME280;5479;52.046;6.314;2023-03-26T08:26:53;100174.41;;;9.27;100.00
10852;BME280;5479;52.046;6.314;2023-03-26T08:29:31;100180.81;;;9.37;100.00
10852;BME280;5479;52.046;6.314;2023-03-26T08:32:02;100175.44;;;9.39;100.00
10852;BME280;5479;52.046;6.314;2023-03-26T08:34:31;100184.72;;;9.18;100.00
10852;BME280;5479;52.046;6.314;2023-03-26T08:36:58;100171.78;;;9.27;100.00
10852;BME280;5479;52.046;6.314;2023-03-26T08:39:27;100175.19;;;9.15;100.00
10852;BME280;5479;52.046;6.314;2023-03-26T08:45:28;100181.06;;;9.06;100.00
10852;BME280;5479;52.046;6.314;2023-03-26T08:54:43;100173.88;;;9.08;100.00
10852;BME280;5479;52.046;6.314;2023-03-26T09:00:38;100173.88;;;8.94;100.00
10852;BME280;5479;52.046;6.314;2023-03-26T09:03:31;100171.72;;;9.15;100.00
10852;BME280;5479;52.046;6.314;2023-03-26T09:06:32;100180.38;;;9.31;100.00
10852;BME280;5479;52.046;6.314;2023-03-26T09:09:41;100176.34;;;9.11;100.00
10852;BME280;5479;52.046;6.314;2023-03-26T09:12:43;100173.88;;;9.08;100.00
10852;BME280;5479;52.046;6.314;2023-03-26T09:15:31;100175.09;;;9.17;100.00
10852;BME280;5479;52.046;6.314;2023-03-26T09:18:36;100170.50;;;9.20;100.00
10852;BME280;5479;52.046;6.314;2023-03-26T09:21:38;100166.91;;;9.48;100.00
10852;BME280;5479;52.046;6.314;2023-03-26T09:27:36;100172.66;;;9.54;100.00
10852;BME280;5479;52.046;6.314;2023-03-26T09:30:46;100164.25;;;9.48;100.00
10852;BME280;5479;52.046;6.314;2023-03-26T09:33:31;100171.75;;;9.68;100.00
10852;BME280;5479;52.046;6.314;2023-03-26T09:36:19;100164.53;;;9.57;100.00
10852;BME280;5479;52.046;6.314;2023-03-26T09:38:52;100169.19;;;9.66;100.00
10852;BME280;5479;52.046;6.314;2023-03-26T09:41:34;100166.34;;;9.69;100.00
10852;BME280;5479;52.046;6.314;2023-03-26T09:44:36;100169.84;;;9.70;100.00
10852;BME280;5479;52.046;6.314;2023-03-26T09:47:28;100168.63;;;9.76;100.00
10852;BME280;5479;52.046;6.314;2023-03-26T09:50:14;100156.59;;;9.57;100.00
10852;BME280;5479;52.046;6.314;2023-03-26T09:52:59;100169.13;;;9.41;100.00
10852;BME280;5479;52.046;6.314;2023-03-26T09:55:40;100162.94;;;9.55;100.00
10852;BME280;5479;52.046;6.314;2023-03-26T09:58:32;100165.34;;;9.85;100.00
10852;BME280;5479;52.046;6.314;2023-03-26T10:01:13;100171.47;;;9.85;100.00
10852;BME280;5479;52.046;6.314;2023-03-26T10:03:53;100166.84;;;9.89;100.00
10852;BME280;5479;52.046;6.314;2023-03-26T10:06:43;100162.66;;;9.45;100.00
10852;BME280;5479;52.046;6.314;2023-03-26T10:09:43;100166.19;;;9.32;100.00
10852;BME280;5479;52.046;6.314;2023-03-26T10:12:39;100167.94;;;9.45;100.00
10852;BME280;5479;52.046;6.314;2023-03-26T10:15:20;100162.84;;;9.42;100.00
10852;BME280;5479;52.046;6.314;2023-03-26T10:18:02;100171.28;;;9.35;100.00
10852;BME280;5479;52.046;6.314;2023-03-26T10:20:40;100169.34;;;9.51;100.00
10852;BME280;5479;52.046;6.314;2023-03-26T10:23:35;100164.66;;;9.68;100.00
10852;BME280;5479;52.046;6.314;2023-03-26T10:26:31;100167.94;;;9.99;100.00
10852;BME280;5479;52.046;6.314;2023-03-26T10:29:25;100172.69;;;9.94;100.00
10852;BME280;5479;52.046;6.314;2023-03-26T10:32:04;100166.56;;;9.66;100.00
10852;BME280;5479;52.046;6.314;2023-03-26T10:34:47;100174.75;;;9.49;100.00
10852;BME280;5479;52.046;6.314;2023-03-26T10:37:26;100170.63;;;9.31;100.00
10852;BME280;5479;52.046;6.314;2023-03-26T10:40:14;100174.28;;;8.88;100.00
10852;BME280;5479;52.046;6.314;2023-03-26T10:46:11;100172.09;;;8.80;100.00
10852;BME280;5479;52.046;6.314;2023-03-26T10:48:58;100173.59;;;8.56;100.00
10852;BME280;5479;52.046;6.314;2023-03-26T10:51:48;100175.78;;;8.49;100.00
10852;BME280;5479;52.046;6.314;2023-03-26T10:54:25;100180.47;;;8.30;100.00
10852;BME280;5479;52.046;6.314;2023-03-26T10:56:59;100176.78;;;8.33;100.00
10852;BME280;5479;52.046;6.314;2023-03-26T10:59:29;100176.53;;;8.22;100.00
10852;BME280;5479;52.046;6.314;2023-03-26T11:02:19;100191.19;;;8.27;100.00
10852;BME280;5479;52.046;6.314;2023-03-26T11:04:55;100187.66;;;8.42;100.00
10852;BME280;5479;52.046;6.314;2023-03-26T11:07:31;100187.38;;;8.47;100.00
10852;BME280;5479;52.046;6.314;2023-03-26T11:10:04;100189.34;;;8.43;100.00
10852;BME280;5479;52.046;6.314;2023-03-26T11:12:40;100190.47;;;8.39;100.00
10852;BME280;5479;52.046;6.314;2023-03-26T11:15:20;100197.53;;;8.39;100.00
10852;BME280;5479;52.046;6.314;2023-03-26T11:18:00;100190.38;;;8.41;100.00
10852;BME280;5479;52.046;6.314;2023-03-26T11:20:36;100184.44;;;8.52;100.00
10852;BME280;5479;52.046;6.314;2023-03-26T11:23:18;100191.63;;;8.49;100.00
10852;BME280;5479;52.046;6.314;2023-03-26T11:25:59;100191.44;;;8.53;100.00
10852;BME280;5479;52.046;6.314;2023-03-26T11:28:44;100188.97;;;8.49;100.00
10852;BME280;5479;52.046;6.314;2023-03-26T11:31:21;100201.50;;;8.46;100.00
10852;BME280;5479;52.046;6.314;2023-03-26T11:33:56;100188.59;;;8.41;100.00
10852;BME280;5479;52.046;6.314;2023-03-26T11:36:30;100190.09;;;8.45;100.00
10852;BME280;5479;52.046;6.314;2023-03-26T11:39:03;100198.00;;;8.45;100.00
10852;BME280;5479;52.046;6.314;2023-03-26T11:41:34;100199.13;;;8.41;100.00
10852;BME280;5479;52.046;6.314;2023-03-26T11:44:04;100206.88;;;8.44;100.00
10852;BME280;5479;52.046;6.314;2023-03-26T11:46:38;100200.47;;;8.48;100.00
10852;BME280;5479;52.046;6.314;2023-03-26T11:49:11;100209.91;;;8.53;100.00
10852;BME280;5479;52.046;6.314;2023-03-26T11:51:41;100201.66;;;8.43;100.00
10852;BME280;5479;52.046;6.314;2023-03-26T11:54:13;100210.03;;;8.35;100.00
10852;BME280;5479;52.046;6.314;2023-03-26T11:56:46;100202.91;;;8.52;100.00
10852;BME280;5479;52.046;6.314;2023-03-26T11:59:17;100208.59;;;8.60;100.00
10852;BME280;5479;52.046;6.314;2023-03-26T12:01:48;100208.75;;;8.57;100.00
10852;BME280;5479;52.046;6.314;2023-03-26T12:04:24;100194.09;;;8.67;100.00
10852;BME280;5479;52.046;6.314;2023-03-26T12:06:55;100199.16;;;8.70;100.00
10852;BME280;5479;52.046;6.314;2023-03-26T12:09:23;100209.06;;;8.80;100.00
10852;BME280;5479;52.046;6.314;2023-03-26T12:11:55;100206.72;;;9.04;100.00
10852;BME280;5479;52.046;6.314;2023-03-26T12:14:28;100206.34;;;8.96;100.00
10852;BME280;5479;52.046;6.314;2023-03-26T12:16:59;100197.47;;;8.97;100.00
10852;BME280;5479;52.046;6.314;2023-03-26T12:19:36;100205.38;;;9.11;100.00
10852;BME280;5479;52.046;6.314;2023-03-26T12:22:26;100206.13;;;9.27;100.00
10852;BME280;5479;52.046;6.314;2023-03-26T12:25:13;100223.09;;;9.23;100.00
10852;BME280;5479;52.046;6.314;2023-03-26T12:27:43;100209.06;;;8.94;100.00
10852;BME280;5479;52.046;6.314;2023-03-26T12:30:19;100217.09;;;8.93;100.00
10852;BME280;5479;52.046;6.314;2023-03-26T12:32:49;100223.41;;;8.76;100.00
10852;BME280;5479;52.046;6.314;2023-03-26T12:35:23;100222.91;;;8.70;100.00
10852;BME280;5479;52.046;6.314;2023-03-26T12:37:54;100223.84;;;8.55;100.00
10852;BME280;5479;52.046;6.314;2023-03-26T12:40:28;100233.09;;;8.62;100.00
10852;BME280;5479;52.046;6.314;2023-03-26T12:42:58;100232.44;;;8.72;100.00
10852;BME280;5479;52.046;6.314;2023-03-26T12:45:29;100227.44;;;8.68;100.00
10852;BME280;5479;52.046;6.314;2023-03-26T12:47:58;100232.34;;;8.60;100.00
10852;BME280;5479;52.046;6.314;2023-03-26T12:50:33;100229.88;;;8.57;100.00
10852;BME280;5479;52.046;6.314;2023-03-26T12:53:25;100234.88;;;8.47;100.00
10852;BME280;5479;52.046;6.314;2023-03-26T12:55:59;100226.06;;;8.32;100.00
10852;BME280;5479;52.046;6.314;2023-03-26T12:59:15;100235.59;;;8.19;100.00
10852;BME280;5479;52.046;6.314;2023-03-26T13:01:53;100236.78;;;8.14;100.00
10852;BME280;5479;52.046;6.314;2023-03-26T13:07:28;100251.56;;;8.02;100.00
10852;BME280;5479;52.046;6.314;2023-03-26T13:13:41;100242.94;;;8.14;100.00
10852;BME280;5479;52.046;6.314;2023-03-26T13:16:16;100248.97;;;8.16;100.00
10852;BME280;5479;52.046;6.314;2023-03-26T13:18:53;100248.72;;;8.21;100.00
10852;BME280;5479;52.046;6.314;2023-03-26T13:21:30;100249.53;;;8.21;100.00
10852;BME280;5479;52.046;6.314;2023-03-26T13:24:09;100251.63;;;8.32;100.00
10852;BME280;5479;52.046;6.314;2023-03-26T13:26:55;100248.13;;;8.31;100.00
10852;BME280;5479;52.046;6.314;2023-03-26T13:29:34;100254.53;;;8.41;100.00
10852;BME280;5479;52.046;6.314;2023-03-26T13:32:11;100255.69;;;8.52;100.00
10852;BME280;5479;52.046;6.314;2023-03-26T13:34:56;100249.31;;;8.56;100.00
10852;BME280;5479;52.046;6.314;2023-03-26T13:37:36;100255.50;;;8.55;100.00
10852;BME280;5479;52.046;6.314;2023-03-26T13:40:18;100252.25;;;8.79;100.00
10852;BME280;5479;52.046;6.314;2023-03-26T13:43:01;100248.50;;;8.97;100.00
10852;BME280;5479;52.046;6.314;2023-03-26T13:45:48;100256.97;;;9.02;100.00
10852;BME280;5479;52.046;6.314;2023-03-26T13:48:21;100246.31;;;9.18;100.00
10852;BME280;5479;52.046;6.314;2023-03-26T13:50:57;100250.81;;;9.44;100.00
10852;BME280;5479;52.046;6.314;2023-03-26T13:53:28;100252.13;;;9.51;100.00
10852;BME280;5479;52.046;6.314;2023-03-26T13:56:02;100254.63;;;9.81;100.00
10852;BME280;5479;52.046;6.314;2023-03-26T13:58:33;100258.66;;;9.60;100.00
10852;BME280;5479;52.046;6.314;2023-03-26T14:01:05;100260.81;;;9.53;100.00
10852;BME280;5479;52.046;6.314;2023-03-26T14:03:42;100269.66;;;9.66;100.00
10852;BME280;5479;52.046;6.314;2023-03-26T14:06:27;100263.25;;;9.70;100.00